createdAt,value
2022-07-28T00:00:27.858Z,101626.00
2022-07-28T00:02:54.108Z,101624.44
2022-07-28T00:05:20.328Z,101626.63
2022-07-28T00:07:48.431Z,101621.66
2022-07-28T00:10:14.818Z,101627.38
2022-07-28T00:12:41.051Z,101622.25
2022-07-28T00:15:07.222Z,101624.44
2022-07-28T00:17:33.483Z,101622.00
2022-07-28T00:19:59.692Z,101624.19
2022-07-28T00:22:25.867Z,101621.66
2022-07-28T00:24:52.058Z,101625.50
2022-07-28T00:27:19.490Z,101628.56
2022-07-28T00:29:50.530Z,101620.84
2022-07-28T00:32:17.301Z,101625.03
2022-07-28T00:34:43.701Z,101620.91
2022-07-28T00:37:13.431Z,101622.22
2022-07-28T00:39:41.182Z,101624.25
2022-07-28T00:42:07.372Z,101618.25
2022-07-28T00:44:33.542Z,101612.25
2022-07-28T00:46:59.873Z,101626.16
2022-07-28T00:49:26.228Z,101624.59
2022-07-28T00:51:52.406Z,101624.91
2022-07-28T00:54:18.605Z,101631.53
2022-07-28T00:56:44.894Z,101628.25
2022-07-28T00:59:11.108Z,101629.53
2022-07-28T01:01:37.477Z,101630.69
2022-07-28T01:04:03.741Z,101628.13
2022-07-28T01:06:29.975Z,101640.31
2022-07-28T01:08:56.168Z,101638.75
2022-07-28T01:11:22.415Z,101636.34
2022-07-28T01:13:48.678Z,101633.91
2022-07-28T01:16:14.917Z,101627.06
2022-07-28T01:18:44.587Z,101639.09
2022-07-28T01:21:10.837Z,101645.63
2022-07-28T01:23:37.056Z,101646.94
2022-07-28T01:26:03.267Z,101643.66
2022-07-28T01:28:29.494Z,101646.81
2022-07-28T01:30:55.772Z,101646.28
2022-07-28T01:33:21.979Z,101642.00
2022-07-28T01:35:48.159Z,101646.72
2022-07-28T01:38:14.349Z,101646.03
2022-07-28T01:40:40.544Z,101650.88
2022-07-28T01:43:06.747Z,101645.59
2022-07-28T01:45:34.610Z,101646.72
2022-07-28T01:48:00.838Z,101639.03
2022-07-28T01:50:27.072Z,101644.91
2022-07-28T01:52:53.283Z,101645.31
2022-07-28T01:55:19.454Z,101646.34
2022-07-28T01:57:45.650Z,101641.19
2022-07-28T02:00:11.920Z,101645.94
2022-07-28T02:02:38.084Z,101648.78
2022-07-28T02:05:04.377Z,101638.22
2022-07-28T02:07:30.655Z,101636.63
2022-07-28T02:09:56.820Z,101635.94
2022-07-28T02:12:23.022Z,101632.50
2022-07-28T02:14:49.264Z,101632.66
2022-07-28T02:17:15.465Z,101627.38
2022-07-28T02:19:41.667Z,101635.81
2022-07-28T02:22:07.886Z,101630.66
2022-07-28T02:24:34.100Z,101632.69
2022-07-28T02:27:00.333Z,101638.41
2022-07-28T02:29:49.701Z,101626.94
2022-07-28T02:32:26.830Z,101633.53
2022-07-28T02:34:54.482Z,101635.53
2022-07-28T02:37:22.570Z,101642.09
2022-07-28T02:39:59.938Z,101646.84
2022-07-28T02:42:26.623Z,101644.38
2022-07-28T02:44:52.834Z,101647.25
2022-07-28T02:47:19.053Z,101651.97
2022-07-28T02:49:45.351Z,101648.50
2022-07-28T02:52:11.570Z,101653.25
2022-07-28T02:54:37.768Z,101655.22
2022-07-28T02:57:03.963Z,101654.53
2022-07-28T02:59:30.165Z,101656.50
2022-07-28T03:01:56.443Z,101663.22
2022-07-28T03:04:22.750Z,101664.38
2022-07-28T03:06:48.931Z,101658.38
2022-07-28T03:09:15.123Z,101653.09
2022-07-28T03:11:41.345Z,101658.63
2022-07-28T03:14:07.588Z,101657.78
2022-07-28T03:16:33.780Z,101659.78
2022-07-28T03:18:59.997Z,101665.34
2022-07-28T03:21:26.263Z,101669.06
2022-07-28T03:23:52.467Z,101670.94
2022-07-28T03:26:18.640Z,101676.47
2022-07-28T03:28:44.893Z,101681.16
2022-07-28T03:31:11.158Z,101679.47
2022-07-28T03:33:37.481Z,101684.91
2022-07-28T03:36:03.674Z,101684.91
2022-07-28T03:38:29.898Z,101678.63
2022-07-28T03:40:56.063Z,101681.34
2022-07-28T03:43:22.286Z,101683.06
2022-07-28T03:45:48.659Z,101689.19
2022-07-28T03:48:14.914Z,101687.19
2022-07-28T03:50:41.162Z,101689.50
2022-07-28T03:53:07.383Z,101692.19
2022-07-28T03:55:33.597Z,101691.66
2022-07-28T03:57:59.802Z,101695.66
2022-07-28T04:00:26.081Z,101695.47
2022-07-28T04:02:52.348Z,101696.53
2022-07-28T04:05:18.590Z,101692.00
2022-07-28T04:07:44.810Z,101696.47
2022-07-28T04:10:11.024Z,101692.28
2022-07-28T04:12:37.243Z,101691.66
2022-07-28T04:15:03.432Z,101692.16
2022-07-28T04:17:29.657Z,101697.94
2022-07-28T04:19:55.872Z,101685.03
2022-07-28T04:22:22.098Z,101691.81
2022-07-28T04:24:48.398Z,101682.19
2022-07-28T04:27:14.612Z,101679.25
2022-07-28T04:29:40.810Z,101673.50
2022-07-28T04:32:07.057Z,101675.81
2022-07-28T04:34:33.297Z,101671.31
2022-07-28T04:36:59.527Z,101672.00
2022-07-28T04:39:25.700Z,101672.56
2022-07-28T04:41:51.948Z,101678.03
2022-07-28T04:44:18.368Z,101677.44
2022-07-28T04:46:44.725Z,101673.88
2022-07-28T04:49:12.154Z,101676.47
2022-07-28T04:51:38.390Z,101677.00
2022-07-28T04:54:04.573Z,101685.63
2022-07-28T04:56:30.848Z,101686.19
2022-07-28T04:58:57.058Z,101688.16
2022-07-28T05:01:23.283Z,101682.59
2022-07-28T05:03:49.517Z,101697.22
2022-07-28T05:06:15.741Z,101683.97
2022-07-28T05:08:41.932Z,101689.84
2022-07-28T05:11:08.142Z,101682.31
2022-07-28T05:13:34.548Z,101685.47
2022-07-28T05:16:00.766Z,101683.66
2022-07-28T05:18:26.996Z,101684.81
2022-07-28T05:20:53.200Z,101694.13
2022-07-28T05:23:19.410Z,101691.97
2022-07-28T05:25:45.641Z,101694.78
2022-07-28T05:28:11.912Z,101699.09
2022-07-28T05:30:38.146Z,101700.41
2022-07-28T05:33:04.378Z,101689.22
2022-07-28T05:35:30.599Z,101704.41
2022-07-28T05:37:56.900Z,101705.16
2022-07-28T05:40:23.102Z,101700.84
2022-07-28T05:42:49.336Z,101704.53
2022-07-28T05:45:16.583Z,101705.19
2022-07-28T05:47:43.425Z,101710.88
2022-07-28T05:50:09.669Z,101711.75
2022-07-28T05:52:35.843Z,101706.56
2022-07-28T05:55:02.112Z,101713.66
2022-07-28T05:57:28.331Z,101718.97
2022-07-28T05:59:54.558Z,101723.31
2022-07-28T06:02:20.882Z,101724.25
2022-07-28T06:04:47.113Z,101720.94
2022-07-28T06:07:13.364Z,101719.03
2022-07-28T06:09:43.372Z,101727.28
2022-07-28T06:12:11.465Z,101718.66
2022-07-28T06:14:37.654Z,101724.81
2022-07-28T06:17:03.997Z,101728.59
2022-07-28T06:19:30.271Z,101734.00
2022-07-28T06:21:56.503Z,101738.06
2022-07-28T06:24:22.849Z,101728.66
2022-07-28T06:26:49.212Z,101726.44
2022-07-28T06:29:15.440Z,101727.47
2022-07-28T06:31:41.682Z,101727.00
2022-07-28T06:34:07.956Z,101725.50
2022-07-28T06:36:34.190Z,101730.13
2022-07-28T06:39:00.603Z,101727.75
2022-07-28T06:41:26.865Z,101726.91
2022-07-28T06:43:53.063Z,101728.41
2022-07-28T06:46:19.373Z,101724.34
2022-07-28T06:48:45.666Z,101732.59
2022-07-28T06:51:12.123Z,101728.13
2022-07-28T06:53:38.352Z,101718.19
2022-07-28T06:56:04.517Z,101722.81
2022-07-28T06:58:30.789Z,101727.56
2022-07-28T07:00:57.022Z,101726.13
2022-07-28T07:03:23.280Z,101717.03
2022-07-28T07:05:51.649Z,101715.81
2022-07-28T07:08:19.222Z,101724.13
2022-07-28T07:10:45.471Z,101719.31
2022-07-28T07:13:13.520Z,101718.19
2022-07-28T07:15:40.255Z,101719.28
2022-07-28T07:18:06.454Z,101714.75
2022-07-28T07:20:32.660Z,101709.19
2022-07-28T07:22:58.857Z,101710.50
2022-07-28T07:25:25.090Z,101713.00
2022-07-28T07:27:51.319Z,101715.34
2022-07-28T07:30:17.552Z,101708.44
2022-07-28T07:32:43.845Z,101717.06
2022-07-28T07:35:10.095Z,101712.91
2022-07-28T07:37:36.339Z,101712.78
2022-07-28T07:40:02.567Z,101720.81
2022-07-28T07:42:28.792Z,101711.34
2022-07-28T07:44:55.054Z,101719.88
2022-07-28T07:47:21.284Z,101716.72
2022-07-28T07:49:47.483Z,101715.13
2022-07-28T07:52:13.693Z,101715.00
2022-07-28T07:54:39.907Z,101725.22
2022-07-28T07:57:06.257Z,101718.69
2022-07-28T07:59:32.489Z,101717.69
2022-07-28T08:01:58.742Z,101717.13
2022-07-28T08:04:25.372Z,101721.41
2022-07-28T08:06:51.806Z,101711.69
2022-07-28T08:09:18.323Z,101715.50
2022-07-28T08:11:44.561Z,101713.78
2022-07-28T08:14:10.950Z,101712.56
2022-07-28T08:16:37.505Z,101710.44
2022-07-28T08:19:03.741Z,101706.22
2022-07-28T08:21:32.346Z,101708.03
2022-07-28T08:23:58.578Z,101703.41
2022-07-28T08:26:24.905Z,101710.66
2022-07-28T08:28:51.130Z,101709.69
2022-07-28T08:31:17.399Z,101706.75
2022-07-28T08:33:53.826Z,101712.53
2022-07-28T08:36:20.763Z,101713.94
2022-07-28T08:38:46.987Z,101711.16
2022-07-28T08:41:13.254Z,101717.28
2022-07-28T08:43:39.495Z,101712.81
2022-07-28T08:46:05.796Z,101720.44
2022-07-28T08:48:32.057Z,101720.03
2022-07-28T08:50:58.449Z,101719.25
2022-07-28T08:53:24.649Z,101717.56
2022-07-28T08:55:50.947Z,101720.56
2022-07-28T08:58:17.128Z,101720.19
2022-07-28T09:00:43.453Z,101720.63
2022-07-28T09:03:09.744Z,101715.91
2022-07-28T09:05:35.977Z,101712.53
2022-07-28T09:08:02.226Z,101709.97
2022-07-28T09:10:28.559Z,101719.34
2022-07-28T09:12:54.830Z,101711.28
2022-07-28T09:15:21.058Z,101710.84
2022-07-28T09:17:47.347Z,101708.75
2022-07-28T09:20:13.562Z,101707.09
2022-07-28T09:22:39.815Z,101712.38
2022-07-28T09:25:06.082Z,101715.97
2022-07-28T09:27:32.330Z,101718.97
2022-07-28T09:29:58.596Z,101714.34
2022-07-28T09:32:24.853Z,101720.34
2022-07-28T09:34:51.847Z,101714.25
2022-07-28T09:37:20.983Z,101709.88
2022-07-28T09:39:49.731Z,101710.75
2022-07-28T09:42:15.993Z,101718.00
2022-07-28T09:44:50.745Z,101706.34
2022-07-28T09:47:28.909Z,101713.09
2022-07-28T09:49:55.315Z,101710.53
2022-07-28T09:52:21.591Z,101714.53
2022-07-28T09:54:48.034Z,101711.97
2022-07-28T09:57:14.316Z,101713.63
2022-07-28T09:59:41.100Z,101708.53
2022-07-28T10:02:09.223Z,101708.72
2022-07-28T10:04:35.770Z,101716.38
2022-07-28T10:07:02.025Z,101707.28
2022-07-28T10:09:28.289Z,101705.84
2022-07-28T10:11:54.510Z,101703.06
2022-07-28T10:14:20.795Z,101695.00
2022-07-28T10:16:47.099Z,101692.25
2022-07-28T10:19:13.377Z,101691.19
2022-07-28T10:21:39.646Z,101688.25
2022-07-28T10:24:05.933Z,101685.91
2022-07-28T10:26:32.182Z,101679.78
2022-07-28T10:28:58.394Z,101686.56
2022-07-28T10:31:24.698Z,101686.97
2022-07-28T10:33:50.955Z,101678.50
2022-07-28T10:36:17.207Z,101689.13
2022-07-28T10:38:43.396Z,101683.81
2022-07-28T10:41:09.660Z,101681.09
2022-07-28T10:43:35.888Z,101680.22
2022-07-28T10:46:12.958Z,101680.69
2022-07-28T10:48:43.520Z,101686.63
2022-07-28T10:51:09.865Z,101677.75
2022-07-28T10:53:37.322Z,101679.88
2022-07-28T10:56:05.791Z,101676.72
2022-07-28T10:58:32.232Z,101670.53
2022-07-28T11:01:05.620Z,101678.63
2022-07-28T11:03:32.790Z,101674.81
2022-07-28T11:05:59.103Z,101675.84
2022-07-28T11:08:25.334Z,101671.59
2022-07-28T11:10:51.555Z,101674.38
2022-07-28T11:13:17.845Z,101665.00
2022-07-28T11:15:46.581Z,101657.53
2022-07-28T11:18:13.649Z,101657.75
2022-07-28T11:20:40.034Z,101662.41
2022-07-28T11:23:08.267Z,101659.84
2022-07-28T11:25:34.962Z,101660.88
2022-07-28T11:28:01.842Z,101662.63
2022-07-28T11:30:28.143Z,101661.78
2022-07-28T11:32:54.399Z,101654.78
2022-07-28T11:35:20.633Z,101662.69
2022-07-28T11:37:46.813Z,101647.38
2022-07-28T11:40:13.054Z,101646.13
2022-07-28T11:42:39.362Z,101646.75
2022-07-28T11:45:05.565Z,101643.75
2022-07-28T11:47:33.230Z,101650.16
2022-07-28T11:49:59.468Z,101646.72
2022-07-28T11:52:25.647Z,101642.66
2022-07-28T11:54:51.845Z,101647.72
2022-07-28T11:57:18.043Z,101640.72
2022-07-28T11:59:44.293Z,101643.59
2022-07-28T12:02:13.597Z,101635.91
2022-07-28T12:04:39.894Z,101635.91
2022-07-28T12:07:07.134Z,101627.41
2022-07-28T12:09:42.009Z,101637.59
2022-07-28T12:12:08.621Z,101632.22
2022-07-28T12:14:38.644Z,101631.34
2022-07-28T12:17:05.544Z,101623.91
2022-07-28T12:19:32.997Z,101627.25
2022-07-28T12:21:59.859Z,101624.91
2022-07-28T12:24:26.495Z,101618.09
2022-07-28T12:26:52.699Z,101623.81
2022-07-28T12:29:20.380Z,101614.03
2022-07-28T12:31:47.059Z,101619.03
2022-07-28T12:34:13.899Z,101612.66
2022-07-28T12:36:40.355Z,101619.00
2022-07-28T12:39:12.520Z,101608.91
2022-07-28T12:41:39.267Z,101611.03
2022-07-28T12:44:05.493Z,101610.78
2022-07-28T12:46:32.234Z,101606.88
2022-07-28T12:48:58.539Z,101605.56
2022-07-28T12:51:24.807Z,101599.13
2022-07-28T12:53:51.024Z,101595.50
2022-07-28T12:56:17.289Z,101595.59
2022-07-28T12:58:43.507Z,101597.22
2022-07-28T13:01:09.825Z,101590.28
2022-07-28T13:03:36.076Z,101589.53
2022-07-28T13:06:02.321Z,101588.38
2022-07-28T13:08:29.520Z,101589.38
2022-07-28T13:10:58.631Z,101588.13
2022-07-28T13:13:25.284Z,101583.84
2022-07-28T13:15:53.706Z,101585.13
2022-07-28T13:18:20.014Z,101579.59
2022-07-28T13:20:46.215Z,101582.16
2022-07-28T13:23:12.431Z,101577.84
2022-07-28T13:25:38.636Z,101576.59
2022-07-28T13:28:04.821Z,101581.22
2022-07-28T13:30:31.124Z,101576.13
2022-07-28T13:32:57.358Z,101576.06
2022-07-28T13:35:23.539Z,101575.56
2022-07-28T13:37:49.795Z,101578.28
2022-07-28T13:40:15.987Z,101572.06
2022-07-28T13:42:52.982Z,101564.81
2022-07-28T13:45:23.804Z,101565.44
2022-07-28T13:47:52.433Z,101566.75
2022-07-28T13:50:20.044Z,101568.81
2022-07-28T13:52:46.245Z,101561.56
2022-07-28T13:55:12.457Z,101570.88
2022-07-28T13:57:43.343Z,101567.34
2022-07-28T14:00:09.651Z,101565.06
2022-07-28T14:02:38.157Z,101564.94
2022-07-28T14:05:04.692Z,101561.19
2022-07-28T14:07:30.876Z,101556.38
2022-07-28T14:09:57.782Z,101549.25
2022-07-28T14:12:25.800Z,101546.88
2022-07-28T14:14:52.205Z,101549.25
2022-07-28T14:17:42.754Z,101550.44
2022-07-28T14:20:04.655Z,101549.31
2022-07-28T14:22:30.958Z,101544.09
2022-07-28T14:24:57.159Z,101537.06
2022-07-28T14:27:28.675Z,101534.66
2022-07-28T14:29:55.401Z,101535.78
2022-07-28T14:32:21.657Z,101534.69
2022-07-28T14:34:47.907Z,101530.56
2022-07-28T14:37:14.320Z,101517.81
2022-07-28T14:39:40.661Z,101516.50
2022-07-28T14:42:06.900Z,101523.50
2022-07-28T14:44:33.166Z,101525.28
2022-07-28T14:46:59.413Z,101515.84
2022-07-28T14:49:25.837Z,101511.94
2022-07-28T14:51:52.059Z,101509.69
2022-07-28T14:54:18.890Z,101518.03
2022-07-28T14:56:45.358Z,101503.28
2022-07-28T14:59:11.559Z,101504.72
2022-07-28T15:01:37.819Z,101503.03
2022-07-28T15:04:04.148Z,101498.75
2022-07-28T15:06:30.400Z,101506.91
2022-07-28T15:08:56.592Z,101511.28
2022-07-28T15:11:22.826Z,101509.53
2022-07-28T15:13:48.996Z,101502.50
2022-07-28T15:16:15.327Z,101505.31
2022-07-28T15:18:41.562Z,101504.03
2022-07-28T15:21:07.811Z,101506.34
2022-07-28T15:23:33.985Z,101503.88
2022-07-28T15:26:00.196Z,101496.75
2022-07-28T15:28:26.434Z,101496.59
2022-07-28T15:30:52.945Z,101504.78
2022-07-28T15:33:19.626Z,101498.13
2022-07-28T15:35:58.294Z,101492.53
2022-07-28T15:38:25.844Z,101495.31
2022-07-28T15:40:52.225Z,101496.66
2022-07-28T15:43:19.252Z,101493.13
2022-07-28T15:45:50.231Z,101494.47
2022-07-28T15:48:16.896Z,101494.63
2022-07-28T15:50:43.059Z,101487.88
2022-07-28T15:53:09.341Z,101489.97
2022-07-28T15:55:35.531Z,101495.09
2022-07-28T15:58:01.830Z,101491.72
2022-07-28T16:00:28.097Z,101486.66
2022-07-28T16:02:54.354Z,101475.28
2022-07-28T16:05:20.621Z,101483.63
2022-07-28T16:07:46.830Z,101477.81
2022-07-28T16:10:13.043Z,101487.00
2022-07-28T16:12:39.231Z,101483.97
2022-07-28T16:15:05.437Z,101483.53
2022-07-28T16:17:31.758Z,101484.69
2022-07-28T16:19:57.958Z,101482.13
2022-07-28T16:22:28.768Z,101480.72
2022-07-28T16:24:54.968Z,101482.81
2022-07-28T16:27:21.189Z,101478.72
2022-07-28T16:29:47.412Z,101476.78
2022-07-28T16:32:13.635Z,101474.13
2022-07-28T16:34:39.870Z,101478.09
2022-07-28T16:37:06.283Z,101482.66
2022-07-28T16:39:32.559Z,101484.00
2022-07-28T16:41:58.796Z,101483.16
2022-07-28T16:44:25.429Z,101480.59
2022-07-28T16:46:51.662Z,101482.59
2022-07-28T16:49:17.956Z,101478.66
2022-07-28T16:51:44.180Z,101492.03
2022-07-28T16:54:10.412Z,101488.34
2022-07-28T16:56:36.620Z,101492.25
2022-07-28T16:59:02.846Z,101497.56
2022-07-28T17:01:29.064Z,101493.94
2022-07-28T17:03:55.276Z,101484.63
2022-07-28T17:06:21.524Z,101486.94
2022-07-28T17:08:47.830Z,101487.78
2022-07-28T17:11:14.058Z,101489.81
2022-07-28T17:13:45.076Z,101489.66
2022-07-28T17:16:11.827Z,101489.06
2022-07-28T17:18:38.081Z,101493.13
2022-07-28T17:21:04.291Z,101497.31
2022-07-28T17:23:30.488Z,101498.03
2022-07-28T17:28:47.033Z,101493.66
2022-07-28T17:31:13.336Z,101493.25
2022-07-28T17:33:39.587Z,101497.34
2022-07-28T17:36:05.823Z,101493.19
2022-07-28T17:38:33.366Z,101497.03
2022-07-28T17:40:59.742Z,101501.13
2022-07-28T17:43:25.963Z,101493.13
2022-07-28T17:45:52.196Z,101494.59
2022-07-28T17:48:18.438Z,101490.09
2022-07-28T17:50:44.647Z,101495.72
2022-07-28T17:53:10.889Z,101493.66
2022-07-28T17:56:00.286Z,101494.94
2022-07-28T17:58:26.389Z,101491.63
2022-07-28T18:00:54.407Z,101495.91
2022-07-28T18:03:20.650Z,101498.75
2022-07-28T18:05:46.857Z,101496.91
2022-07-28T18:08:13.100Z,101498.69
2022-07-28T18:10:39.294Z,101495.34
2022-07-28T18:13:05.538Z,101502.28
2022-07-28T18:15:31.817Z,101501.06
2022-07-28T18:17:58.080Z,101500.72
2022-07-28T18:20:24.345Z,101502.34
2022-07-28T18:22:50.723Z,101495.56
2022-07-28T18:25:16.959Z,101493.72
2022-07-28T18:27:43.165Z,101494.59
2022-07-28T18:30:09.426Z,101497.19
2022-07-28T18:32:35.702Z,101492.56
2022-07-28T18:35:01.939Z,101500.28
2022-07-28T18:37:28.183Z,101495.00
2022-07-28T18:39:57.246Z,101490.78
2022-07-28T18:42:23.464Z,101486.84
2022-07-28T18:44:49.721Z,101496.22
2022-07-28T18:47:15.968Z,101499.44
2022-07-28T18:49:42.209Z,101494.59
2022-07-28T18:52:08.430Z,101495.28
2022-07-28T18:54:34.662Z,101493.81
2022-07-28T18:57:00.885Z,101487.91
2022-07-28T18:59:27.117Z,101503.44
2022-07-28T19:01:53.545Z,101501.09
2022-07-28T19:04:19.893Z,101502.41
2022-07-28T19:06:46.134Z,101492.88
2022-07-28T19:09:12.317Z,101512.41
2022-07-28T19:11:43.754Z,101503.50
2022-07-28T19:14:12.379Z,101510.47
2022-07-28T19:16:38.749Z,101514.31
2022-07-28T19:19:04.972Z,101510.47
2022-07-28T19:21:31.174Z,101516.84
2022-07-28T19:23:57.426Z,101512.56
2022-07-28T19:26:23.636Z,101509.38
2022-07-28T19:28:49.832Z,101509.56
2022-07-28T19:31:16.122Z,101512.53
2022-07-28T19:33:43.766Z,101514.19
2022-07-28T19:36:10.430Z,101509.50
2022-07-28T19:38:36.625Z,101515.00
2022-07-28T19:41:02.839Z,101506.94
2022-07-28T19:43:29.033Z,101513.69
2022-07-28T19:45:55.339Z,101511.97
2022-07-28T19:48:21.529Z,101506.41
2022-07-28T19:50:50.822Z,101512.06
2022-07-28T19:53:17.440Z,101511.81
2022-07-28T19:55:43.623Z,101518.97
2022-07-28T19:58:16.804Z,101524.28
2022-07-28T20:00:42.972Z,101523.38
2022-07-28T20:04:02.101Z,101532.63
2022-07-28T20:05:55.455Z,101524.13
2022-07-28T20:08:21.663Z,101530.47
2022-07-28T20:10:47.874Z,101534.00
2022-07-28T20:13:14.081Z,101532.72
2022-07-28T20:15:40.369Z,101534.16
2022-07-28T20:18:06.667Z,101542.16
2022-07-28T20:20:32.918Z,101543.59
2022-07-28T20:22:59.114Z,101542.31
2022-07-28T20:25:25.307Z,101541.00
2022-07-28T20:27:51.479Z,101539.72
2022-07-28T20:30:17.720Z,101537.53
2022-07-28T20:32:43.897Z,101539.16
2022-07-28T20:35:10.097Z,101544.41
2022-07-28T20:37:37.589Z,101539.72
2022-07-28T20:40:04.113Z,101544.94
2022-07-28T20:42:30.313Z,101545.53
2022-07-28T20:44:56.501Z,101552.47
2022-07-28T20:47:22.735Z,101550.66
2022-07-28T20:49:48.999Z,101551.25
2022-07-28T20:52:15.209Z,101549.94
2022-07-28T20:54:41.414Z,101553.28
2022-07-28T20:57:07.673Z,101551.97
2022-07-28T20:59:33.875Z,101557.22
2022-07-28T21:02:00.187Z,101553.13
2022-07-28T21:04:26.522Z,101555.41
2022-07-28T21:07:00.761Z,101551.56
2022-07-28T21:09:28.605Z,101556.56
2022-07-28T21:11:54.793Z,101560.56
2022-07-28T21:14:21.002Z,101561.13
2022-07-28T21:16:47.281Z,101564.44
2022-07-28T21:19:13.583Z,101554.22
2022-07-28T21:21:39.781Z,101560.09
2022-07-28T21:24:06.032Z,101557.91
2022-07-28T21:26:32.234Z,101562.09
2022-07-28T21:28:58.477Z,101568.34
2022-07-28T21:31:24.652Z,101567.22
2022-07-28T21:33:50.858Z,101572.41
2022-07-28T21:36:17.048Z,101576.75
2022-07-28T21:38:43.228Z,101573.72
2022-07-28T21:41:09.437Z,101577.03
2022-07-28T21:43:35.610Z,101575.06
2022-07-28T21:46:01.850Z,101584.03
2022-07-28T21:48:28.048Z,101572.59
2022-07-28T21:50:54.291Z,101582.06
2022-07-28T21:53:20.492Z,101585.16
2022-07-28T21:55:46.710Z,101592.25
2022-07-28T21:58:12.919Z,101581.84
2022-07-28T22:00:39.319Z,101596.09
2022-07-28T22:03:05.611Z,101585.84
2022-07-28T22:05:31.801Z,101592.91
2022-07-28T22:07:58.042Z,101596.19
2022-07-28T22:10:24.225Z,101599.69
2022-07-28T22:12:50.470Z,101609.50
2022-07-28T22:15:16.674Z,101598.44
2022-07-28T22:17:42.863Z,101608.88
2022-07-28T22:20:09.075Z,101608.59
2022-07-28T22:22:35.254Z,101601.97
2022-07-28T22:25:01.453Z,101604.38
2022-07-28T22:27:27.678Z,101605.94
2022-07-28T22:29:53.874Z,101608.03
2022-07-28T22:32:28.585Z,101611.81
2022-07-28T22:34:55.570Z,101616.78
2022-07-28T22:37:21.823Z,101612.88
2022-07-28T22:39:48.059Z,101619.75
2022-07-28T22:42:14.292Z,101621.16
2022-07-28T22:44:40.486Z,101618.09
2022-07-28T22:47:06.706Z,101623.94
2022-07-28T22:49:32.933Z,101618.81
2022-07-28T22:51:59.131Z,101620.19
2022-07-28T22:54:25.354Z,101621.38
2022-07-28T22:56:51.611Z,101628.06
2022-07-28T22:59:17.949Z,101624.00
2022-07-28T23:01:44.182Z,101637.16
2022-07-28T23:04:10.716Z,101632.91
2022-07-28T23:06:36.929Z,101647.81
2022-07-28T23:09:03.135Z,101645.75
2022-07-28T23:11:29.358Z,101650.53
2022-07-28T23:13:55.551Z,101642.69
2022-07-28T23:16:21.777Z,101643.72
2022-07-28T23:18:48.039Z,101644.25
2022-07-28T23:21:14.233Z,101640.16
2022-07-28T23:23:40.417Z,101639.16
2022-07-28T23:26:06.636Z,101632.34
2022-07-28T23:28:32.853Z,101636.44
2022-07-28T23:30:59.070Z,101633.22
2022-07-28T23:33:56.249Z,101638.00
2022-07-28T23:36:16.244Z,101637.50
2022-07-28T23:38:53.191Z,101634.06
2022-07-28T23:41:19.417Z,101633.22
2022-07-28T23:43:45.622Z,101644.34
2022-07-28T23:46:11.808Z,101634.78
2022-07-28T23:48:38.119Z,101642.28
2022-07-28T23:51:04.311Z,101633.44
2022-07-28T23:53:30.506Z,101640.06
2022-07-28T23:55:56.698Z,101643.16
2022-07-28T23:58:22.881Z,101634.47
